AirNav   Everest Fuels
 
 1156 users online  

1DA
(formerly ID42)
Big Bar Airport
Lucile, Idaho, USA

GOING TO LUCILE?


FAA INFORMATION EFFECTIVE 21 MAY 2020

Location

FAA Identifier: 1DA
Lat/Long: 45-32-04.4800N 116-31-51.3000W
45-32.074667N 116-31.855000W
45.5345778,-116.5309167
(estimated)
Elevation: 1236 ft. / 377 m (estimated)
From city: 9 miles W of LUCILE, ID
Time zone: UTC -6 (UTC -7 during Standard Time)
Zip code: 83542

Airport Operations

Airport use: Open to the public
Activation date: 12/2016
Control tower: no
ARTCC: SEATTLE CENTER
FSS: BOISE FLIGHT SERVICE STATION
NOTAMs facility: BOI (NOTAM-D service available)
Attendance: 
Wind indicator: yes
Segmented circle: no

Airport Communications

CTAF: 122.9

Airport Services

Runway Information

Runway 17/35

Dimensions: 1203 x 30 ft. / 367 x 9 m
Surface: turf/dirt
RUNWAY 17  RUNWAY 35
Traffic pattern: leftleft

Airport Ownership and Management from official FAA records

Ownership: Privately-owned
Owner: USDA - FOREST SERVICE
WALLOWA-WHITMAN NATIONAL FOREST
LAGRANDE, OR 97850
Phone 541-975-5418
Manager: MILES HANCOCK
59973 DOWNS ROAD
LAGRANDE, OR 97850
Phone 541-975-5418

Additional Remarks

FOR CD CTC SEATTLE ARTCC AT 253-351-3694.

Instrument Procedures

There are no published instrument procedures at 1DA.

Some nearby airports with instrument procedures:

KGIC - Idaho County Airport (30 nm NE)
KMYL - Mc Call Municipal Airport (43 nm SE)
KLWS - Lewiston-Nez Perce County Airport (54 nm N)
KLGD - La Grande/Union County Airport (64 nm W)
KBKE - Baker City Municipal Airport (68 nm SW)
 
Loc | Ops | Rwys | IFR | FBO | Links
Com | Nav | Svcs | Stats | Notes
Aerial photo
No photo
 
Airport distance calculator
Flying to Big Bar Airport? Find the distance to fly.

From to 1DA

Sunrise and sunset
Times for 25-May-2020
 Local
(UTC-6)
 Zulu
(UTC)
Morning civil twilight05:2911:29
Sunrise06:0612:06
Sunset21:2103:21
Evening civil twilight21:5703:57

Current date and time
Zulu (UTC)  25-May-2020 15:46:29
Local (UTC-6)  25-May-2020 09:46:29
 
METAR
KGIC 
30nm NE 
251535Z AUTO 02003KT 10SM CLR 12/07 A3011 RMK AO1
KMYL 
43nm SE 
251451Z AUTO 00000KT 10SM CLR 08/01 A3016 RMK AO2 SLP194 T00780011 51003
TAF
KMYL 
43nm SE 
251120Z 2512/2612 VRB03KT P6SM SCT250 FM251800 19008KT P6SM SCT100 FM260200 VRB06KT P6SM -SHRA OVC050
NOTAMs
Click for the latest NOTAMs
NOTAMs are issued by the DoD/FAA and will open in a separate window not controlled by AirNav.

 

 
 

Would you like to see your business listed on this page?

 If your business provides an interesting product or service to pilots, flight crews, aircraft, or users of the Big Bar Airport, you should consider listing it here.  To start the listing process, click on the button below
 
Add a business
 

Other Pages about Big Bar Airport

Update a link
 
Copyright © AirNav, LLC. All rights reserved. Privacy Policy  Contact